Aviation Digital Data Service (ADDS)

Output produced by METARs form (0626 UTC 20 October 2018)
found at http://www.aviationweather.gov/metar/data/
 
HTAR 200500Z 00000KT 9999 SCT020 19/16 Q1019 NOSIG
HTAR 200500Z 2006/2106 06008KT 9999 SCT025
       
HTDA 200500Z 00000KT 9999 FEW015 BKN017 28/24 Q1014 NOSIG
TAF HTDA 200500Z 2006/2112 00000KT 9999 BKN020 
     BECMG 2007/2010 05010KT 
     BECMG 2013/2016 SCT026 
     BECMG 2019/2022 00000KT
       
HTDO 200500Z 10008KT 9999 FEW018 SCT230 21/17 Q1019 NOSIG
HTDO 200500Z 2006/2106 09012KT 9999 FEW023 
     BECMG 2010/2013 SCT036 FEW038CB
       
HTIR 200500Z 00000KT 9999 FEW018 BKN200 20/15 Q1022
HTKJ 200500Z 09007KT 9999 BKN024 22/18 Q1018 NOSIG
TAF HTKJ 200500Z 2006/2106 09010KT 9999 BKN026 
     BECMG 2011/2014 FEW032CB SCT034 
     BECMG 2018/2020 SCT028
       
HTMT 200500Z 16005KT 9999 BKN020 25/24 Q1015
HTMW 200500Z 36008KT 9999 FEW019 FEW020CB BKN090 20/18 Q1018 NOSIG
HTMW 200500Z 2006/2106 12010KT 9999 RA SCT021 FEW022CB BKN090 
     BECMG 2014/2016 33010KT NSW FEW020 FEW021CB BKN100 
     BECMG 2004/2006 09010KT
       
HTZA 200500Z 03005KT 9999 FEW016 27/24 Q1014 NOSIG
HTZA 200500Z 2006/2106 08005KT 9999 BKN018 
     BECMG 2013/2015 SCT020 
     BECMG 2020/2022 00000KT 
     BECMG 2103/2105 BKN018